createdAt,value
2023-01-04T00:07:48.004Z,13.68
2023-01-04T00:17:50.724Z,16.40
2023-01-04T00:27:55.895Z,14.53
2023-01-04T00:38:02.289Z,13.52
2023-01-04T00:48:04.577Z,14.75
2023-01-04T01:08:36.930Z,13.02
2023-01-04T01:18:46.058Z,14.82
2023-01-04T01:28:49.675Z,16.85
2023-01-04T01:38:51.797Z,20.00
2023-01-04T01:49:04.143Z,15.63
2023-01-04T01:59:09.712Z,14.88
2023-01-04T02:09:15.517Z,14.68
2023-01-04T02:19:36.056Z,15.05
2023-01-04T02:30:08.283Z,15.20
2023-01-04T02:40:19.156Z,13.13
2023-01-04T02:50:33.602Z,10.40
2023-01-04T03:01:13.432Z,11.75
2023-01-04T03:11:36.789Z,8.93
2023-01-04T03:21:44.399Z,11.70
2023-01-04T03:32:21.167Z,12.32
2023-01-04T03:42:52.333Z,13.82
2023-01-04T03:52:56.809Z,12.80
2023-01-04T04:03:07.562Z,15.35
2023-01-04T04:13:09.537Z,15.57
2023-01-04T04:23:11.348Z,17.52
2023-01-04T04:33:13.231Z,20.48
2023-01-04T04:43:15.150Z,17.38
2023-01-04T04:53:19.662Z,23.15
2023-01-04T05:03:22.451Z,19.20
2023-01-04T05:13:24.505Z,23.30
2023-01-04T05:23:27.319Z,22.33
2023-01-04T05:33:32.573Z,21.27
2023-01-04T05:43:36.332Z,22.55
2023-01-04T05:53:39.090Z,26.83
2023-01-04T06:03:41.938Z,29.02
2023-01-04T06:13:49.926Z,28.67
2023-01-04T06:23:53.202Z,27.90
2023-01-04T06:33:56.435Z,37.00
2023-01-04T06:43:58.487Z,32.57
2023-01-04T06:54:00.190Z,33.38
2023-01-04T07:04:02.154Z,32.75
2023-01-04T07:14:05.792Z,35.80
2023-01-04T07:24:07.485Z,40.80
2023-01-04T07:34:09.423Z,48.00
2023-01-04T07:44:12.208Z,41.85
2023-01-04T07:54:15.518Z,34.47
2023-01-04T08:04:19.009Z,32.70
2023-01-04T08:14:23.363Z,23.35
2023-01-04T08:24:25.146Z,30.35
2023-01-04T08:34:26.866Z,24.65
2023-01-04T08:44:36.263Z,24.15
2023-01-04T08:54:37.968Z,24.95
2023-01-04T09:04:40.041Z,23.70
2023-01-04T09:14:42.108Z,25.48
2023-01-04T09:24:45.938Z,21.15
2023-01-04T09:34:56.721Z,24.75
2023-01-04T09:45:24.821Z,24.75
2023-01-04T09:55:39.387Z,29.02
2023-01-04T10:05:54.862Z,22.77
2023-01-04T10:16:15.127Z,15.10
2023-01-04T10:26:37.642Z,18.50
2023-01-04T10:36:42.029Z,13.98
2023-01-04T10:46:50.008Z,13.02
2023-01-04T10:57:12.562Z,13.27
2023-01-04T11:07:23.938Z,12.85
2023-01-04T11:17:26.269Z,15.15
2023-01-04T11:27:32.743Z,26.15
2023-01-04T11:37:41.634Z,13.05
2023-01-04T11:47:55.868Z,14.20
2023-01-04T11:58:28.114Z,10.13
2023-01-04T12:08:33.281Z,9.65
2023-01-04T12:18:40.073Z,9.30
2023-01-04T12:29:09.703Z,10.73
2023-01-04T12:39:23.389Z,5.63
2023-01-04T12:49:29.177Z,8.60
2023-01-04T12:59:38.817Z,8.70
2023-01-04T13:09:51.753Z,6.90
2023-01-04T13:19:54.831Z,4.05
2023-01-04T13:29:56.687Z,8.63
2023-01-04T13:40:29.156Z,10.87
2023-01-04T13:50:49.734Z,8.83
2023-01-04T14:00:58.586Z,14.40
2023-01-04T14:11:51.075Z,14.15
2023-01-04T14:21:52.948Z,18.02
2023-01-04T14:31:54.671Z,21.25
2023-01-04T14:41:57.774Z,20.63
2023-01-04T14:52:02.712Z,27.13
2023-01-04T15:02:06.905Z,27.15
2023-01-04T15:12:08.845Z,28.63
2023-01-04T15:22:20.493Z,34.88
2023-01-04T15:32:23.765Z,38.45
2023-01-04T15:42:44.489Z,42.28
2023-01-04T15:52:46.315Z,43.85
2023-01-04T16:02:48.344Z,52.40
2023-01-04T16:12:57.175Z,46.20
2023-01-04T16:23:02.184Z,51.30
2023-01-04T16:33:06.324Z,68.55
2023-01-04T16:43:17.428Z,62.67
2023-01-04T16:53:20.100Z,94.60
2023-01-04T17:03:25.255Z,59.90
2023-01-04T17:13:30.489Z,73.32
2023-01-04T17:23:34.411Z,68.57
2023-01-04T17:43:44.672Z,56.17
2023-01-04T17:53:48.848Z,59.45
2023-01-04T18:03:54.051Z,56.13
2023-01-04T18:13:57.667Z,67.22
2023-01-04T18:34:27.293Z,56.47
2023-01-04T18:44:34.402Z,57.10
2023-01-04T18:54:39.138Z,54.78
2023-01-04T19:04:41.442Z,43.97
2023-01-04T19:14:44.101Z,52.35
2023-01-04T19:24:53.053Z,44.13
2023-01-04T19:34:55.646Z,46.47
2023-01-04T19:44:59.237Z,41.28
2023-01-04T20:05:10.394Z,47.55
2023-01-04T20:15:15.913Z,44.78
2023-01-04T20:25:18.873Z,45.45
2023-01-04T20:35:25.185Z,45.40
2023-01-04T20:45:29.055Z,43.53
2023-01-04T20:55:38.942Z,41.42
2023-01-04T21:05:44.361Z,34.33
2023-01-04T21:15:46.744Z,36.95
2023-01-04T21:25:52.666Z,37.80
2023-01-04T21:35:57.352Z,33.45
2023-01-04T21:46:08.157Z,38.28
2023-01-04T21:56:16.152Z,39.05
2023-01-04T22:06:20.784Z,40.25
2023-01-04T22:16:25.401Z,42.50
2023-01-04T22:26:28.435Z,40.83
2023-01-04T22:36:30.175Z,48.90
2023-01-04T22:46:34.093Z,53.33
2023-01-04T23:06:39.341Z,45.17
2023-01-04T23:16:41.440Z,38.80
2023-01-04T23:26:47.292Z,29.13
2023-01-04T23:36:49.740Z,32.92
2023-01-04T23:57:05.782Z,27.33
